Time;durP1;ratioP1;P1;durP2;ratioP2;P2;SDS_P1;SDS_P2;PMS_P1;PMS_P2;Temp;Humidity;BMP_temperature;BMP_pressure;BME280_temperature;BME280_humidity;BME280_pressure;Samples;Min_cycle;Max_cycle;Signal;HPM_P1;HPM_P2
2023/12/29 00:01:16;;;;;;;1.92;1.48;;;10.40;99.90;;;;;;4969276;28;20051;-66
2023/12/29 00:03:42;;;;;;;4.57;2.75;;;10.40;99.90;;;;;;4962682;28;20055;-66
2023/12/29 00:06:07;;;;;;;0.30;0.30;;;10.40;99.90;;;;;;4964785;28;20042;-66
2023/12/29 00:08:33;;;;;;;0.13;0.13;;;10.30;99.90;;;;;;4958486;28;20510;-67
2023/12/29 00:10:59;;;;;;;3.95;2.28;;;10.40;99.90;;;;;;4973431;28;20046;-66
2023/12/29 00:13:25;;;;;;;3.65;2.70;;;10.40;99.90;;;;;;4967409;28;20046;-66
2023/12/29 00:15:54;;;;;;;1.75;1.63;;;10.40;99.90;;;;;;4963493;28;20121;-66
2023/12/29 00:18:20;;;;;;;3.75;1.52;;;10.40;99.90;;;;;;4965797;28;20505;-66
2023/12/29 00:20:46;;;;;;;0.25;0.25;;;10.40;99.90;;;;;;4965577;28;20050;-66
2023/12/29 00:23:11;;;;;;;0.10;0.10;;;10.40;99.90;;;;;;4965214;28;20046;-66
2023/12/29 00:25:37;;;;;;;0.82;0.82;;;10.40;99.90;;;;;;4975582;28;20049;-66
2023/12/29 00:28:04;;;;;;;0.20;0.20;;;10.40;99.90;;;;;;4978320;28;20051;-66
2023/12/29 00:30:29;;;;;;;0.25;0.25;;;10.40;99.90;;;;;;4964097;28;20490;-66
2023/12/29 00:32:55;;;;;;;0.10;0.10;;;10.40;99.90;;;;;;4964757;28;20043;-66
2023/12/29 00:35:21;;;;;;;1.00;0.73;;;10.40;99.90;;;;;;4963020;28;20482;-66
2023/12/29 00:37:46;;;;;;;0.10;0.10;;;10.40;99.90;;;;;;4964045;28;20105;-66
2023/12/29 00:40:12;;;;;;;0.22;0.22;;;10.40;99.90;;;;;;4975655;28;20047;-66
2023/12/29 00:42:38;;;;;;;0.10;0.10;;;10.40;99.90;;;;;;4968125;28;20047;-67
2023/12/29 00:45:04;;;;;;;10.63;2.17;;;10.40;99.90;;;;;;4972915;28;20061;-66
2023/12/29 00:47:30;;;;;;;1.77;1.10;;;10.40;99.90;;;;;;4965821;28;20125;-66
2023/12/29 00:49:56;;;;;;;0.15;0.15;;;10.40;99.90;;;;;;4961029;28;20074;-66
2023/12/29 00:52:21;;;;;;;0.40;0.40;;;10.50;99.90;;;;;;4969743;28;20133;-66
2023/12/29 00:54:47;;;;;;;18.88;3.80;;;10.40;99.90;;;;;;4973035;28;20055;-66
2023/12/29 00:57:12;;;;;;;0.52;0.52;;;10.40;99.90;;;;;;4971104;28;20615;-66
2023/12/29 00:59:41;;;;;;;0.08;0.08;;;10.40;99.90;;;;;;4961404;28;20055;-66
2023/12/29 01:02:07;;;;;;;0.10;0.10;;;10.40;99.90;;;;;;4972220;28;20043;-67
2023/12/29 01:04:33;;;;;;;0.10;0.10;;;10.40;99.90;;;;;;4968559;28;20050;-67
2023/12/29 01:06:59;;;;;;;0.10;0.10;;;10.30;99.90;;;;;;4970455;28;20494;-66
2023/12/29 01:09:26;;;;;;;0.10;0.10;;;10.40;99.90;;;;;;4958464;28;20105;-66
2023/12/29 01:11:52;;;;;;;3.72;1.45;;;10.30;99.90;;;;;;4973259;28;20055;-66
2023/12/29 01:14:17;;;;;;;4.05;2.13;;;10.30;99.90;;;;;;4960986;28;20047;-66
2023/12/29 01:16:43;;;;;;;0.63;0.63;;;10.30;99.90;;;;;;4963200;28;20118;-66
2023/12/29 01:19:09;;;;;;;0.20;0.20;;;10.40;99.90;;;;;;4968804;28;20479;-66
2023/12/29 01:21:37;;;;;;;0.15;0.15;;;10.40;99.90;;;;;;4962518;28;20455;-66
2023/12/29 01:24:04;;;;;;;4.57;2.30;;;10.30;99.90;;;;;;4972748;28;20077;-66
2023/12/29 01:26:30;;;;;;;0.32;0.28;;;10.40;99.90;;;;;;4964184;28;20059;-66
2023/12/29 01:28:55;;;;;;;0.10;0.10;;;10.30;99.90;;;;;;4965335;28;20114;-66
2023/12/29 01:31:22;;;;;;;0.40;0.40;;;10.40;99.90;;;;;;4963635;28;20395;-66
2023/12/29 01:33:47;;;;;;;0.10;0.10;;;10.40;99.90;;;;;;4968013;28;20047;-66
2023/12/29 01:36:19;;;;;;;0.10;0.10;;;10.40;99.90;;;;;;4958511;28;20050;-66
2023/12/29 01:38:45;;;;;;;0.32;0.32;;;10.30;99.90;;;;;;4960715;28;20058;-66
2023/12/29 01:41:10;;;;;;;0.55;0.55;;;10.40;99.90;;;;;;4955183;28;20062;-66
2023/12/29 01:43:36;;;;;;;0.10;0.10;;;10.40;99.90;;;;;;4983505;28;20105;-66
2023/12/29 01:46:02;;;;;;;0.00;0.00;;;10.30;99.90;;;;;;4962547;28;20077;-66
2023/12/29 01:48:27;;;;;;;0.10;0.10;;;10.30;99.90;;;;;;4964628;28;20054;-66
2023/12/29 01:50:54;;;;;;;7.68;1.55;;;10.30;99.90;;;;;;4961691;28;20046;-66
2023/12/29 01:53:20;;;;;;;2.35;2.15;;;10.30;99.90;;;;;;4975576;28;20093;-66
2023/12/29 01:55:46;;;;;;;0.10;0.10;;;10.30;99.90;;;;;;4962482;28;20071;-66
2023/12/29 01:58:12;;;;;;;0.00;0.00;;;10.20;99.90;;;;;;4966751;28;20121;-66
2023/12/29 02:00:38;;;;;;;0.20;0.20;;;10.20;99.90;;;;;;4964558;28;20046;-66
2023/12/29 02:03:04;;;;;;;0.32;0.32;;;10.20;99.90;;;;;;4966396;28;20034;-66
2023/12/29 02:05:32;;;;;;;2.08;1.10;;;10.10;99.90;;;;;;4966706;28;20039;-67
2023/12/29 02:07:58;;;;;;;0.77;0.75;;;10.10;99.90;;;;;;4954478;28;20043;-66
2023/12/29 02:10:24;;;;;;;1.25;1.08;;;10.10;99.90;;;;;;4963716;28;20050;-66
2023/12/29 02:12:50;;;;;;;0.20;0.20;;;10.00;99.90;;;;;;4963764;28;20102;-66
2023/12/29 02:15:16;;;;;;;0.15;0.15;;;10.10;99.90;;;;;;4960541;28;20081;-66
2023/12/29 02:17:47;;;;;;;1.30;1.20;;;10.00;99.90;;;;;;4965373;28;21299;-66
2023/12/29 02:20:13;;;;;;;2.03;1.65;;;10.00;99.90;;;;;;4964407;28;20046;-66
2023/12/29 02:22:38;;;;;;;4.60;2.88;;;10.00;99.90;;;;;;4962977;28;20046;-67
2023/12/29 02:25:06;;;;;;;1.20;1.20;;;9.90;99.90;;;;;;4956433;28;20066;-66
2023/12/29 02:27:48;;;;;;;13.75;3.10;;;9.90;99.90;;;;;;4963467;28;20035;-66
2023/12/29 02:30:34;;;;;;;0.13;0.13;;;10.00;99.90;;;;;;4960462;28;20125;-66
2023/12/29 02:33:04;;;;;;;4.95;1.75;;;10.00;99.90;;;;;;4963764;28;20050;-66
2023/12/29 02:35:35;;;;;;;1.65;1.10;;;10.10;99.90;;;;;;4959662;28;20050;-66
2023/12/29 02:38:01;;;;;;;1.42;1.33;;;10.10;99.90;;;;;;4969636;28;20067;-66
2023/12/29 02:40:27;;;;;;;0.10;0.10;;;10.10;99.90;;;;;;4962566;28;20432;-66
2023/12/29 02:42:53;;;;;;;5.78;2.30;;;10.10;99.90;;;;;;4967258;28;20054;-66
2023/12/29 02:45:18;;;;;;;2.85;0.90;;;10.10;99.90;;;;;;4971396;28;20129;-66
2023/12/29 02:47:44;;;;;;;0.75;0.75;;;10.10;99.90;;;;;;4962725;28;20498;-66
2023/12/29 02:50:10;;;;;;;1.52;1.40;;;10.10;99.90;;;;;;4963855;28;20061;-66
2023/12/29 02:52:37;;;;;;;1.38;0.88;;;10.10;99.90;;;;;;4974810;28;20054;-67
2023/12/29 02:55:03;;;;;;;17.95;2.22;;;10.10;99.90;;;;;;4968415;28;20042;-66
2023/12/29 02:57:29;;;;;;;2.25;1.85;;;10.10;99.90;;;;;;4972554;28;20043;-66
2023/12/29 02:59:55;;;;;;;0.10;0.10;;;10.10;99.90;;;;;;4966841;28;20061;-66
2023/12/29 03:02:22;;;;;;;11.88;2.78;;;10.00;99.90;;;;;;4972212;28;20073;-66
2023/12/29 03:04:47;;;;;;;0.60;0.50;;;10.00;99.90;;;;;;4955822;28;20049;-66
2023/12/29 03:07:13;;;;;;;2.72;1.48;;;10.00;99.90;;;;;;4966094;28;20393;-66
2023/12/29 03:09:38;;;;;;;0.10;0.10;;;10.00;99.90;;;;;;4961171;28;20135;-66
2023/12/29 03:12:05;;;;;;;5.13;0.55;;;10.00;99.90;;;;;;4976590;28;20070;-66
2023/12/29 03:14:30;;;;;;;44.63;1.95;;;9.90;99.90;;;;;;4968225;28;20054;-66
2023/12/29 03:16:56;;;;;;;10.50;3.42;;;9.90;99.90;;;;;;4964495;28;20106;-66
2023/12/29 03:19:21;;;;;;;1.38;1.30;;;9.90;99.90;;;;;;4965907;28;20039;-66
2023/12/29 03:21:47;;;;;;;9.65;2.92;;;10.00;99.90;;;;;;4970362;28;20648;-66
2023/12/29 03:24:12;;;;;;;14.32;3.40;;;9.90;99.90;;;;;;4969990;28;20053;-66
2023/12/29 03:26:38;;;;;;;0.60;0.40;;;10.00;99.90;;;;;;4973703;28;20066;-66
2023/12/29 03:29:03;;;;;;;0.03;0.03;;;10.00;99.90;;;;;;4963266;28;20042;-66
2023/12/29 03:31:29;;;;;;;3.33;1.08;;;10.00;99.90;;;;;;4970766;28;20085;-67
2023/12/29 03:33:54;;;;;;;0.20;0.20;;;9.90;99.90;;;;;;4965468;28;20043;-66
2023/12/29 03:36:20;;;;;;;1.52;1.45;;;9.90;99.90;;;;;;4971147;28;20482;-66
2023/12/29 03:38:46;;;;;;;0.10;0.10;;;9.90;99.90;;;;;;4967280;28;20059;-66
2023/12/29 03:41:11;;;;;;;0.10;0.10;;;9.90;99.90;;;;;;4970622;28;20058;-66
2023/12/29 03:43:37;;;;;;;0.10;0.10;;;9.80;99.90;;;;;;4970377;28;20039;-66
2023/12/29 03:46:02;;;;;;;0.93;0.93;;;9.80;99.90;;;;;;4967412;28;20262;-66
2023/12/29 03:48:28;;;;;;;0.10;0.10;;;9.80;99.90;;;;;;4966903;28;20054;-66
2023/12/29 03:50:54;;;;;;;1.55;0.95;;;9.90;99.90;;;;;;4969655;28;20403;-66
2023/12/29 03:53:19;;;;;;;3.33;2.65;;;9.80;99.90;;;;;;4960835;28;20040;-66
2023/12/29 03:55:45;;;;;;;0.10;0.10;;;9.80;99.90;;;;;;4964090;28;20838;-66
2023/12/29 03:58:10;;;;;;;0.10;0.10;;;9.80;99.90;;;;;;4966984;28;20105;-66
2023/12/29 04:00:36;;;;;;;3.60;2.30;;;9.80;99.90;;;;;;4978490;28;20054;-66
2023/12/29 04:03:02;;;;;;;0.52;0.52;;;9.80;99.90;;;;;;4963753;28;20043;-66
2023/12/29 04:05:28;;;;;;;0.00;0.00;;;9.90;99.90;;;;;;4961865;28;20078;-66
2023/12/29 04:07:53;;;;;;;0.47;0.47;;;9.90;99.90;;;;;;4970653;28;20043;-66
2023/12/29 04:10:19;;;;;;;0.30;0.30;;;9.90;99.90;;;;;;4956665;28;20090;-66
2023/12/29 04:12:44;;;;;;;1.65;1.55;;;9.90;99.90;;;;;;4971733;28;20482;-66
2023/12/29 04:15:11;;;;;;;0.63;0.63;;;9.90;99.90;;;;;;4960573;28;20051;-66
2023/12/29 04:17:37;;;;;;;0.50;0.50;;;9.90;99.90;;;;;;4964421;28;20051;-66
2023/12/29 04:20:03;;;;;;;1.55;1.45;;;9.80;99.90;;;;;;4970441;28;20051;-66
2023/12/29 04:22:28;;;;;;;0.68;0.68;;;9.80;99.90;;;;;;4965986;28;20050;-66
2023/12/29 04:24:54;;;;;;;0.40;0.40;;;9.80;99.90;;;;;;4965737;28;20043;-66
2023/12/29 04:27:22;;;;;;;0.85;0.85;;;9.80;99.90;;;;;;4963320;28;20053;-66
2023/12/29 04:29:48;;;;;;;0.98;0.98;;;9.80;99.90;;;;;;4957254;28;20082;-66
2023/12/29 04:32:14;;;;;;;0.10;0.10;;;9.70;99.90;;;;;;4965114;28;20042;-66
2023/12/29 04:34:39;;;;;;;0.17;0.17;;;9.80;99.90;;;;;;4956680;28;20483;-66
2023/12/29 04:37:05;;;;;;;0.00;0.00;;;9.70;99.90;;;;;;4971756;28;20104;-66
2023/12/29 04:39:31;;;;;;;1.52;1.42;;;9.70;99.90;;;;;;4967811;28;20505;-67
2023/12/29 04:41:57;;;;;;;0.10;0.10;;;9.70;99.90;;;;;;4974054;28;20064;-66
2023/12/29 04:44:23;;;;;;;0.10;0.10;;;9.80;99.90;;;;;;4971578;28;20508;-66
2023/12/29 04:46:49;;;;;;;0.30;0.30;;;9.80;99.90;;;;;;4970062;28;20450;-66
2023/12/29 04:49:14;;;;;;;11.18;4.65;;;9.90;99.90;;;;;;4964042;28;20077;-66
2023/12/29 04:51:40;;;;;;;0.10;0.10;;;9.80;99.90;;;;;;4968940;28;20045;-66
2023/12/29 04:54:05;;;;;;;2.00;1.48;;;9.90;99.90;;;;;;4969372;28;20097;-66
2023/12/29 04:56:31;;;;;;;0.88;0.85;;;9.90;99.90;;;;;;4966286;28;20992;-66
2023/12/29 04:58:56;;;;;;;2.35;2.15;;;9.90;99.90;;;;;;4962255;28;20070;-66
2023/12/29 05:01:22;;;;;;;0.10;0.10;;;9.80;99.90;;;;;;4970995;28;20054;-66
2023/12/29 05:03:47;;;;;;;14.52;2.65;;;9.80;99.90;;;;;;4966147;28;20370;-66
2023/12/29 05:06:13;;;;;;;0.10;0.10;;;9.90;99.90;;;;;;4963804;28;20051;-66
2023/12/29 05:08:39;;;;;;;1.95;1.20;;;9.90;99.90;;;;;;4968373;28;20047;-66
2023/12/29 05:11:04;;;;;;;0.22;0.22;;;9.80;99.90;;;;;;4970610;28;20031;-66
2023/12/29 05:13:30;;;;;;;1.30;0.40;;;9.90;99.90;;;;;;4963131;28;20510;-66
2023/12/29 05:15:55;;;;;;;3.10;2.10;;;9.80;99.90;;;;;;4964227;28;20050;-66
2023/12/29 05:18:21;;;;;;;0.10;0.10;;;9.90;99.90;;;;;;4973127;28;20051;-66
2023/12/29 05:20:46;;;;;;;1.33;1.23;;;9.90;99.90;;;;;;4958583;28;20483;-66
2023/12/29 05:23:12;;;;;;;2.28;2.10;;;9.80;99.90;;;;;;4984334;28;20049;-66
2023/12/29 05:25:38;;;;;;;0.10;0.10;;;9.80;99.90;;;;;;4969825;28;20074;-66
2023/12/29 05:28:04;;;;;;;0.05;0.05;;;9.80;99.90;;;;;;4970544;28;20502;-66
2023/12/29 05:30:31;;;;;;;4.35;3.08;;;9.80;99.90;;;;;;4962567;28;20042;-66
2023/12/29 05:32:57;;;;;;;4.03;1.98;;;9.80;99.90;;;;;;4970649;28;20051;-66
2023/12/29 05:35:22;;;;;;;0.65;0.65;;;9.90;99.90;;;;;;4955877;28;20054;-66
2023/12/29 05:37:48;;;;;;;1.17;1.17;;;9.80;99.90;;;;;;4970208;28;20093;-66
2023/12/29 05:40:14;;;;;;;0.20;0.20;;;9.90;99.90;;;;;;4966970;28;20050;-66
2023/12/29 05:42:40;;;;;;;0.95;0.95;;;9.90;99.90;;;;;;4970968;28;20120;-66
2023/12/29 05:45:06;;;;;;;7.22;1.38;;;9.90;99.90;;;;;;4969636;28;20117;-66
2023/12/29 05:47:31;;;;;;;2.20;0.90;;;9.90;99.90;;;;;;4961489;28;20541;-66
2023/12/29 05:49:57;;;;;;;2.22;1.88;;;9.90;99.90;;;;;;4971057;28;20043;-66
2023/12/29 05:52:23;;;;;;;0.10;0.10;;;9.90;99.90;;;;;;4962984;28;20049;-65
2023/12/29 05:54:48;;;;;;;1.65;1.58;;;9.90;99.90;;;;;;4959803;28;20623;-66
2023/12/29 05:57:14;;;;;;;0.17;0.17;;;9.90;99.90;;;;;;4960817;28;20032;-66
2023/12/29 05:59:40;;;;;;;0.10;0.10;;;10.00;99.90;;;;;;4954185;28;20054;-67
2023/12/29 06:02:05;;;;;;;0.30;0.30;;;10.00;99.90;;;;;;4971077;28;20038;-66
2023/12/29 06:04:31;;;;;;;1.27;1.17;;;9.90;99.90;;;;;;4970001;28;20051;-66
2023/12/29 06:06:56;;;;;;;4.07;0.63;;;9.90;99.90;;;;;;4969390;28;20043;-66
2023/12/29 06:09:22;;;;;;;0.30;0.30;;;9.90;99.90;;;;;;4958930;28;20052;-66
2023/12/29 06:11:48;;;;;;;1.50;1.40;;;9.90;99.90;;;;;;4964629;28;20557;-66
2023/12/29 06:14:14;;;;;;;1.05;1.05;;;9.90;99.90;;;;;;4962474;28;20031;-66
2023/12/29 06:16:40;;;;;;;3.42;1.77;;;9.90;99.90;;;;;;4969672;28;20058;-66
2023/12/29 06:19:05;;;;;;;4.00;0.85;;;9.90;99.90;;;;;;4968633;28;20054;-66
2023/12/29 06:21:31;;;;;;;0.10;0.10;;;9.90;99.90;;;;;;4971375;28;20402;-66
2023/12/29 06:23:57;;;;;;;0.30;0.30;;;9.90;99.90;;;;;;4961689;28;20035;-66
2023/12/29 06:26:22;;;;;;;1.40;1.35;;;9.90;99.90;;;;;;4962247;28;20802;-66
2023/12/29 06:28:48;;;;;;;0.20;0.20;;;10.00;99.90;;;;;;4969029;28;20454;-66
2023/12/29 06:31:14;;;;;;;0.85;0.77;;;10.00;99.90;;;;;;4968502;28;20114;-67
2023/12/29 06:33:43;;;;;;;0.10;0.10;;;10.00;99.90;;;;;;4961048;28;20042;-66
2023/12/29 06:36:09;;;;;;;0.00;0.00;;;10.00;99.90;;;;;;4967728;28;20049;-66
2023/12/29 06:38:35;;;;;;;10.63;3.13;;;10.00;99.90;;;;;;4977303;28;20079;-66
2023/12/29 06:41:03;;;;;;;0.63;0.63;;;10.00;99.90;;;;;;4961184;28;20051;-66
2023/12/29 06:43:29;;;;;;;0.10;0.10;;;10.00;99.90;;;;;;4968260;28;20047;-66
2023/12/29 06:45:55;;;;;;;0.10;0.10;;;10.00;99.90;;;;;;4968878;28;20038;-66
2023/12/29 06:48:20;;;;;;;0.88;0.80;;;10.00;99.90;;;;;;4967802;28;20395;-66
2023/12/29 06:50:46;;;;;;;0.75;0.75;;;10.00;99.90;;;;;;4960683;28;20786;-66
2023/12/29 06:53:12;;;;;;;2.78;2.17;;;10.00;99.90;;;;;;4966805;28;20047;-66
2023/12/29 06:55:37;;;;;;;0.57;0.57;;;10.00;99.90;;;;;;4955098;28;20074;-66
2023/12/29 06:58:04;;;;;;;9.95;2.03;;;10.00;99.90;;;;;;4962910;28;20466;-66
2023/12/29 07:00:30;;;;;;;0.10;0.10;;;10.00;99.90;;;;;;4958907;28;20039;-66
2023/12/29 07:02:55;;;;;;;2.72;2.40;;;10.00;99.90;;;;;;4959374;28;20466;-66
2023/12/29 07:05:21;;;;;;;2.63;1.50;;;10.00;99.90;;;;;;4963748;28;20074;-66
2023/12/29 07:07:47;;;;;;;0.00;0.00;;;10.00;99.90;;;;;;4957233;28;20040;-66
2023/12/29 07:10:13;;;;;;;0.20;0.20;;;10.00;99.90;;;;;;4958756;28;20038;-66
2023/12/29 07:12:42;;;;;;;0.50;0.50;;;10.00;99.90;;;;;;4966370;28;20074;-66
2023/12/29 07:15:08;;;;;;;0.10;0.10;;;10.00;99.90;;;;;;4961759;28;20044;-66
2023/12/29 07:17:34;;;;;;;0.20;0.20;;;10.10;99.90;;;;;;4961994;28;20498;-66
2023/12/29 07:20:00;;;;;;;0.10;0.10;;;10.10;99.90;;;;;;4966853;28;20074;-66
2023/12/29 07:22:26;;;;;;;5.05;2.20;;;10.10;99.90;;;;;;4961955;28;20127;-66
2023/12/29 07:24:51;;;;;;;4.95;2.22;;;10.10;99.90;;;;;;4964789;28;20532;-66
2023/12/29 07:27:17;;;;;;;0.10;0.10;;;10.10;99.90;;;;;;4963017;28;20410;-66
2023/12/29 07:29:43;;;;;;;1.27;0.95;;;10.00;99.90;;;;;;4959239;28;20058;-65
2023/12/29 07:32:08;;;;;;;0.57;0.57;;;10.10;99.90;;;;;;4969822;28;20054;-66
2023/12/29 07:34:34;;;;;;;0.40;0.40;;;10.00;99.90;;;;;;4956230;28;20031;-66
2023/12/29 07:36:59;;;;;;;0.57;0.57;;;10.10;99.90;;;;;;4965685;28;20038;-66
2023/12/29 07:39:25;;;;;;;0.85;0.85;;;10.00;99.90;;;;;;4967663;28;20091;-66
2023/12/29 07:41:51;;;;;;;1.55;1.45;;;9.90;99.90;;;;;;4955939;28;20126;-67
2023/12/29 07:44:17;;;;;;;0.85;0.85;;;9.90;99.90;;;;;;4960506;28;20046;-66
2023/12/29 07:46:44;;;;;;;0.20;0.20;;;9.90;99.90;;;;;;4963362;28;20051;-66
2023/12/29 07:49:10;;;;;;;0.47;0.45;;;9.90;99.90;;;;;;4959385;28;20098;-66
2023/12/29 07:51:43;;;;;;;0.45;0.45;;;9.90;99.90;;;;;;4966319;28;20073;-66
2023/12/29 07:54:09;;;;;;;0.10;0.10;;;9.80;99.90;;;;;;4964195;28;20098;-66
2023/12/29 07:56:36;;;;;;;0.10;0.10;;;9.80;99.90;;;;;;4962199;28;20097;-67
2023/12/29 07:59:02;;;;;;;0.90;0.65;;;9.80;99.90;;;;;;4961250;28;20451;-66
2023/12/29 08:01:28;;;;;;;0.00;0.00;;;9.80;99.90;;;;;;4967272;28;20050;-66
2023/12/29 08:03:54;;;;;;;0.88;0.55;;;9.90;99.90;;;;;;4965466;28;20053;-66
2023/12/29 08:06:19;;;;;;;0.55;0.55;;;9.80;99.90;;;;;;4966307;28;20470;-66
2023/12/29 08:08:45;;;;;;;0.38;0.38;;;9.80;99.90;;;;;;4972219;28;20956;-66
2023/12/29 08:11:15;;;;;;;2.10;1.90;;;9.80;99.90;;;;;;4975590;28;20046;-66
2023/12/29 08:13:42;;;;;;;0.32;0.32;;;9.90;99.90;;;;;;4974106;28;20078;-66
2023/12/29 08:16:08;;;;;;;4.05;2.42;;;9.80;99.90;;;;;;4967276;28;20085;-67
2023/12/29 08:18:34;;;;;;;0.73;0.73;;;9.80;99.90;;;;;;4974773;28;20100;-66
2023/12/29 08:20:59;;;;;;;0.10;0.10;;;9.80;99.90;;;;;;4966864;28;20047;-66
2023/12/29 08:23:26;;;;;;;0.10;0.10;;;9.80;99.90;;;;;;4982884;28;20129;-66
2023/12/29 08:25:52;;;;;;;0.10;0.10;;;9.80;99.90;;;;;;4972936;28;20379;-66
2023/12/29 08:28:17;;;;;;;1.15;1.08;;;9.80;99.90;;;;;;4963451;28;20049;-66
2023/12/29 08:30:45;;;;;;;0.30;0.30;;;9.80;99.90;;;;;;4973076;28;20054;-66
2023/12/29 08:33:12;;;;;;;0.40;0.40;;;9.80;99.90;;;;;;4967596;28;20063;-66
2023/12/29 08:35:39;;;;;;;0.10;0.10;;;9.80;99.90;;;;;;4961515;28;20055;-66
2023/12/29 08:38:04;;;;;;;4.50;1.63;;;9.70;99.90;;;;;;4972695;28;20138;-67
2023/12/29 08:40:30;;;;;;;0.00;0.00;;;9.70;99.90;;;;;;4957345;28;20193;-66
2023/12/29 08:42:56;;;;;;;0.80;0.80;;;9.80;99.90;;;;;;4967512;28;20055;-66
2023/12/29 08:45:21;;;;;;;0.20;0.20;;;9.70;99.90;;;;;;4969339;28;20039;-66
2023/12/29 08:47:47;;;;;;;0.80;0.77;;;9.70;99.90;;;;;;4960349;28;20054;-66
2023/12/29 08:50:12;;;;;;;1.23;0.63;;;9.70;99.90;;;;;;4971160;28;20054;-66
2023/12/29 08:52:38;;;;;;;2.88;2.05;;;9.70;99.90;;;;;;4964145;28;20114;-66
2023/12/29 08:55:04;;;;;;;0.00;0.00;;;9.70;99.90;;;;;;4966547;28;20047;-66
2023/12/29 08:57:31;;;;;;;0.93;0.63;;;9.70;99.90;;;;;;4971229;28;20044;-67
2023/12/29 08:59:57;;;;;;;0.70;0.70;;;9.80;99.90;;;;;;4966930;28;20043;-67
2023/12/29 09:02:22;;;;;;;0.00;0.00;;;9.80;99.90;;;;;;4966691;28;20050;-66
2023/12/29 09:04:48;;;;;;;0.10;0.10;;;9.80;99.90;;;;;;4967003;28;20082;-66
2023/12/29 09:07:13;;;;;;;0.10;0.10;;;9.90;99.90;;;;;;4960980;28;20050;-66
2023/12/29 09:09:39;;;;;;;11.38;3.13;;;9.80;99.90;;;;;;4966976;28;20043;-66
2023/12/29 09:12:05;;;;;;;0.70;0.63;;;9.90;99.90;;;;;;4966261;28;20046;-66
2023/12/29 09:14:32;;;;;;;0.10;0.10;;;9.90;99.90;;;;;;4967332;28;20046;-66
2023/12/29 09:16:58;;;;;;;2.40;1.27;;;9.90;99.90;;;;;;4957915;28;20038;-66
2023/12/29 09:19:23;;;;;;;0.00;0.00;;;9.90;99.90;;;;;;4964990;28;20043;-66
2023/12/29 09:21:49;;;;;;;3.20;1.38;;;9.90;99.90;;;;;;4978111;28;20054;-67
2023/12/29 09:24:14;;;;;;;16.50;2.00;;;9.90;99.90;;;;;;4966876;28;20529;-67
2023/12/29 09:26:40;;;;;;;0.47;0.43;;;10.00;99.90;;;;;;4972078;28;20049;-67
2023/12/29 09:29:06;;;;;;;0.10;0.10;;;10.00;99.90;;;;;;4963527;28;20046;-67
2023/12/29 09:31:31;;;;;;;0.30;0.30;;;10.00;99.90;;;;;;4959407;28;20227;-66
2023/12/29 09:33:57;;;;;;;0.30;0.30;;;10.10;99.90;;;;;;4972077;28;20037;-67
2023/12/29 09:36:22;;;;;;;0.20;0.20;;;10.10;99.90;;;;;;4963714;28;20438;-67
2023/12/29 09:38:48;;;;;;;0.45;0.45;;;10.10;99.90;;;;;;4976693;28;20059;-67
2023/12/29 09:41:15;;;;;;;0.10;0.10;;;10.00;99.90;;;;;;4972262;28;20043;-67
2023/12/29 09:43:44;;;;;;;0.85;0.73;;;10.00;99.90;;;;;;4966778;28;20402;-66
2023/12/29 09:46:11;;;;;;;0.10;0.10;;;10.00;99.90;;;;;;4997538;28;20074;-66
2023/12/29 09:48:37;;;;;;;0.50;0.50;;;10.10;99.90;;;;;;4981599;28;20050;-66
2023/12/29 09:51:07;;;;;;;0.98;0.93;;;10.10;99.90;;;;;;4967577;28;20051;-67
2023/12/29 09:53:35;;;;;;;0.10;0.10;;;10.10;99.90;;;;;;4967047;28;20403;-67
2023/12/29 09:56:03;;;;;;;0.20;0.20;;;10.10;99.90;;;;;;4969694;28;20077;-66
2023/12/29 09:58:28;;;;;;;0.20;0.20;;;10.10;99.90;;;;;;4955845;28;20051;-67
2023/12/29 10:00:54;;;;;;;0.45;0.45;;;10.10;99.90;;;;;;4966355;28;20553;-66
2023/12/29 10:03:20;;;;;;;8.70;2.83;;;10.10;99.90;;;;;;4969111;28;20035;-66
2023/12/29 10:05:51;;;;;;;0.10;0.10;;;10.10;99.90;;;;;;4962426;28;20058;-67
2023/12/29 10:08:17;;;;;;;2.72;2.22;;;10.10;99.90;;;;;;4961711;28;20416;-66
2023/12/29 10:10:43;;;;;;;0.10;0.10;;;10.10;99.90;;;;;;4962267;28;20074;-67
2023/12/29 10:13:11;;;;;;;0.22;0.22;;;10.00;99.90;;;;;;4967648;28;21195;-66
2023/12/29 10:15:54;;;;;;;0.17;0.17;;;10.00;99.90;;;;;;4965865;28;20414;-67
2023/12/29 10:18:32;;;;;;;0.10;0.10;;;9.90;99.90;;;;;;4970169;28;20050;-66
2023/12/29 10:21:01;;;;;;;1.23;0.95;;;9.90;99.90;;;;;;4968310;28;20186;-66
2023/12/29 10:23:37;;;;;;;0.38;0.38;;;9.90;99.90;;;;;;4969397;28;20038;-66
2023/12/29 10:26:03;;;;;;;0.47;0.47;;;9.80;99.90;;;;;;4959315;28;20466;-66
2023/12/29 10:28:29;;;;;;;0.10;0.10;;;9.80;99.90;;;;;;4966688;28;20054;-67
2023/12/29 10:30:54;;;;;;;0.10;0.10;;;9.80;99.90;;;;;;4966862;28;20070;-66
2023/12/29 10:33:26;;;;;;;0.10;0.10;;;9.80;99.90;;;;;;4970808;28;20064;-66
2023/12/29 10:35:58;;;;;;;0.65;0.65;;;9.70;99.90;;;;;;4961601;28;20062;-66
2023/12/29 10:38:24;;;;;;;4.38;1.75;;;9.70;99.90;;;;;;4965461;28;20057;-66
2023/12/29 10:40:50;;;;;;;0.10;0.10;;;9.70;99.90;;;;;;4957898;28;20047;-66
2023/12/29 10:43:24;;;;;;;0.10;0.10;;;9.70;99.90;;;;;;4957688;28;20514;-66
2023/12/29 10:46:07;;;;;;;0.30;0.30;;;9.70;99.90;;;;;;4961591;28;20545;-66
2023/12/29 10:48:32;;;;;;;0.10;0.10;;;9.70;99.90;;;;;;4965246;28;20098;-66
2023/12/29 10:50:58;;;;;;;0.10;0.10;;;9.70;99.90;;;;;;4975831;28;20074;-65
2023/12/29 10:53:23;;;;;;;2.28;1.85;;;9.70;99.90;;;;;;4955114;28;20043;-65
2023/12/29 10:55:49;;;;;;;0.10;0.10;;;9.70;99.90;;;;;;4974535;28;20047;-66
2023/12/29 10:58:19;;;;;;;0.30;0.30;;;9.70;99.90;;;;;;4974211;28;20050;-66
2023/12/29 11:00:45;;;;;;;1.27;1.17;;;9.70;99.90;;;;;;4967867;28;20050;-66
2023/12/29 11:03:15;;;;;;;0.50;0.50;;;9.70;99.90;;;;;;4966024;28;20050;-66
2023/12/29 11:05:41;;;;;;;0.00;0.00;;;9.80;99.90;;;;;;4959064;28;20086;-65
2023/12/29 11:08:16;;;;;;;1.33;1.23;;;9.80;99.90;;;;;;4972614;28;20070;-65
2023/12/29 11:10:43;;;;;;;0.10;0.10;;;9.80;99.90;;;;;;4955767;28;20685;-66
2023/12/29 11:13:13;;;;;;;0.13;0.13;;;9.90;99.90;;;;;;4965663;28;20415;-65
2023/12/29 11:15:44;;;;;;;0.10;0.10;;;9.80;99.90;;;;;;4956636;28;20075;-65
2023/12/29 11:18:14;;;;;;;0.35;0.35;;;9.90;99.90;;;;;;4967056;28;20047;-66
2023/12/29 11:20:41;;;;;;;41.85;1.35;;;9.90;99.90;;;;;;4957727;28;20067;-66
2023/12/29 11:23:09;;;;;;;0.10;0.10;;;9.90;99.90;;;;;;4958582;28;20044;-66
2023/12/29 11:25:35;;;;;;;1.48;1.38;;;9.90;99.90;;;;;;4966244;28;20141;-65
2023/12/29 11:28:00;;;;;;;0.20;0.20;;;10.00;99.90;;;;;;4968511;28;20125;-65
2023/12/29 11:30:26;;;;;;;0.50;0.50;;;10.00;99.90;;;;;;4961863;28;20086;-66
2023/12/29 11:32:55;;;;;;;0.90;0.82;;;10.00;99.90;;;;;;4972782;28;20042;-65
2023/12/29 11:35:46;;;;;;;0.20;0.20;;;10.10;99.90;;;;;;4963548;28;20139;-66
2023/12/29 11:38:32;;;;;;;0.10;0.10;;;10.20;99.90;;;;;;4964662;28;20047;-66
2023/12/29 11:41:05;;;;;;;0.10;0.10;;;10.20;99.90;;;;;;4957157;28;20702;-66
2023/12/29 11:43:31;;;;;;;0.77;0.77;;;10.30;99.90;;;;;;4961837;28;20038;-66
2023/12/29 11:45:57;;;;;;;0.10;0.10;;;10.40;99.90;;;;;;4964639;28;20057;-66
2023/12/29 11:48:55;;;;;;;0.55;0.55;;;10.50;99.90;;;;;;4968636;28;20042;-66
2023/12/29 11:51:28;;;;;;;1.60;1.50;;;10.60;99.90;;;;;;4968345;28;20051;-66
2023/12/29 11:53:54;;;;;;;0.10;0.10;;;10.70;99.90;;;;;;4972558;28;20050;-66
2023/12/29 11:56:20;;;;;;;1.13;0.32;;;10.70;99.90;;;;;;4964204;28;20043;-66
2023/12/29 11:58:45;;;;;;;0.13;0.13;;;10.80;99.90;;;;;;4966475;28;20074;-65
2023/12/29 12:01:11;;;;;;;0.43;0.43;;;10.80;99.90;;;;;;4973459;28;21833;-66
2023/12/29 12:03:36;;;;;;;0.85;0.82;;;10.80;99.90;;;;;;4966942;28;20078;-65
2023/12/29 12:06:05;;;;;;;0.63;0.63;;;10.60;99.90;;;;;;4968988;28;20047;-66
2023/12/29 12:08:35;;;;;;;14.60;2.53;;;10.40;99.90;;;;;;4971792;28;20106;-66
2023/12/29 12:11:29;;;;;;;0.50;0.50;;;10.30;99.90;;;;;;4968776;28;20498;-65
2023/12/29 12:13:55;;;;;;;1.00;1.00;;;10.20;99.90;;;;;;4974859;28;20185;-66
2023/12/29 12:16:50;;;;;;;0.75;0.75;;;10.10;99.90;;;;;;4970969;28;20047;-65
2023/12/29 12:19:20;;;;;;;0.75;0.75;;;10.20;99.90;;;;;;4960592;28;20054;-66
2023/12/29 12:21:51;;;;;;;0.10;0.10;;;10.20;99.90;;;;;;4964399;28;20098;-65
2023/12/29 12:24:19;;;;;;;4.38;2.65;;;10.10;99.90;;;;;;4972208;28;20073;-65
2023/12/29 12:26:45;;;;;;;21.42;2.10;;;10.00;99.90;;;;;;4956138;28;20086;-66
2023/12/29 12:29:13;;;;;;;0.75;0.75;;;9.90;99.90;;;;;;4964718;28;20134;-66
2023/12/29 12:31:57;;;;;;;14.05;2.08;;;9.80;99.90;;;;;;4972732;28;20082;-65
2023/12/29 12:34:24;;;;;;;3.15;0.80;;;9.80;99.90;;;;;;4966699;28;20054;-66
2023/12/29 12:36:50;;;;;;;0.22;0.22;;;9.70;99.90;;;;;;4960941;28;20047;-65
2023/12/29 12:39:16;;;;;;;0.50;0.50;;;9.70;99.90;;;;;;4969392;28;20078;-66
2023/12/29 12:41:42;;;;;;;0.50;0.50;;;9.70;99.90;;;;;;4968688;28;20125;-65
2023/12/29 12:44:12;;;;;;;3.00;1.75;;;9.60;99.90;;;;;;4960607;28;20394;-65
2023/12/29 12:46:58;;;;;;;0.10;0.10;;;9.60;99.90;;;;;;4968189;28;20043;-65
2023/12/29 12:49:24;;;;;;;0.00;0.00;;;9.60;99.90;;;;;;4964849;28;20487;-65